Time;durP1;ratioP1;P1;durP2;ratioP2;P2;SDS_P1;SDS_P2;PMS_P1;PMS_P2;Temp;Humidity;BMP_temperature;BMP_pressure;BME280_temperature;BME280_humidity;BME280_pressure;Samples;Min_cycle;Max_cycle;Signal;HPM_P1;HPM_P2
2021/01/01 00:00:14;;;;;;;48.08;33.23;;;;;;;6.86;91.71;99726.36;1734216;82;21053;-53
2021/01/01 00:02:43;;;;;;;52.20;34.55;;;;;;;6.86;91.47;99726.89;1734250;82;21060;-52
2021/01/01 00:05:17;;;;;;;48.05;33.20;;;;;;;6.81;91.48;99726.33;1734319;82;21559;-53
2021/01/01 00:07:45;;;;;;;43.17;29.60;;;;;;;6.78;91.39;99728.23;1734229;82;21021;-52
2021/01/01 00:10:14;;;;;;;50.20;31.97;;;;;;;6.78;91.50;99721.41;1734209;82;20986;-52
2021/01/01 00:12:41;;;;;;;47.75;32.45;;;;;;;6.78;91.64;99722.77;1734344;82;21564;-52
2021/01/01 00:15:10;;;;;;;49.23;32.75;;;;;;;6.84;91.77;99717.59;1734449;82;21053;-52
2021/01/01 00:17:39;;;;;;;46.50;31.05;;;;;;;6.88;91.61;99707.80;1734411;82;21361;-52
2021/01/01 00:20:09;;;;;;;44.88;31.33;;;;;;;6.87;91.40;99710.27;1734229;82;21049;-52
2021/01/01 00:22:37;;;;;;;44.15;28.87;;;;;;;6.85;91.34;99708.33;1734268;82;21033;-52
2021/01/01 00:25:07;;;;;;;42.65;28.05;;;;;;;6.84;91.28;99708.05;1734181;82;21035;-53
2021/01/01 00:27:34;;;;;;;43.08;29.37;;;;;;;6.79;91.21;99708.04;1734304;82;21065;-53
2021/01/01 00:30:05;;;;;;;43.02;29.60;;;;;;;6.77;91.25;99701.20;1734420;82;21362;-53
2021/01/01 00:32:32;;;;;;;40.48;27.48;;;;;;;6.74;91.33;99699.81;1734104;82;21049;-53
2021/01/01 00:35:00;;;;;;;42.45;28.10;;;;;;;6.71;91.45;99698.98;1734151;82;21038;-53
2021/01/01 00:37:27;;;;;;;39.45;26.75;;;;;;;6.67;91.47;99699.23;1734291;82;21081;-53
2021/01/01 00:39:54;;;;;;;42.98;28.47;;;;;;;6.63;91.61;99694.87;1734151;82;21038;-53
2021/01/01 00:42:22;;;;;;;40.88;27.93;;;;;;;6.62;91.69;99682.86;1734258;82;21560;-53
2021/01/01 00:44:49;;;;;;;41.28;25.55;;;;;;;6.61;91.81;99690.20;1734119;82;21045;-52
2021/01/01 00:47:18;;;;;;;39.25;26.80;;;;;;;6.63;91.91;99683.95;1734352;82;21053;-52
2021/01/01 00:49:45;;;;;;;32.00;23.02;;;;;;;6.62;91.80;99678.77;1734141;82;21025;-52
2021/01/01 00:52:13;;;;;;;42.78;27.70;;;;;;;6.58;91.87;99671.08;1734384;82;21018;-52
2021/01/01 00:54:40;;;;;;;33.53;24.37;;;;;;;6.57;91.95;99674.92;1734229;82;21277;-52
2021/01/01 00:57:08;;;;;;;40.15;25.92;;;;;;;6.57;92.04;99670.83;1734049;82;21604;-53
2021/01/01 00:59:37;;;;;;;40.25;27.50;;;;;;;6.60;92.13;99672.73;1734289;82;21049;-52
2021/01/01 01:02:04;;;;;;;45.38;28.42;;;;;;;6.61;92.09;99670.30;1734286;82;21049;-53
2021/01/01 01:04:32;;;;;;;43.20;27.67;;;;;;;6.57;92.16;99677.65;1734341;82;21021;-52
2021/01/01 01:07:00;;;;;;;36.65;25.50;;;;;;;6.54;92.27;99676.82;1734496;82;21480;-51
2021/01/01 01:09:27;;;;;;;35.98;24.30;;;;;;;6.53;92.44;99669.71;1734265;82;21099;-52
2021/01/01 01:11:55;;;;;;;32.78;23.65;;;;;;;6.54;92.59;99668.64;1734351;82;21037;-52
2021/01/01 01:14:22;;;;;;;36.30;24.82;;;;;;;6.55;92.67;99666.16;1734388;82;21042;-51
2021/01/01 01:16:50;;;;;;;35.40;25.75;;;;;;;6.58;92.80;99664.27;1734349;82;21049;-52
2021/01/01 01:19:17;;;;;;;35.90;24.65;;;;;;;6.62;92.93;99661.03;1734353;82;21201;-52
2021/01/01 01:21:45;;;;;;;32.45;22.50;;;;;;;6.65;92.93;99656.39;1734151;82;21162;-52
2021/01/01 01:24:13;;;;;;;38.08;24.00;;;;;;;6.67;92.91;99656.42;1734593;82;21460;-51
2021/01/01 01:26:40;;;;;;;35.23;24.90;;;;;;;6.68;93.00;99647.12;1745697;82;21037;-52
2021/01/01 01:29:08;;;;;;;35.48;26.07;;;;;;;6.74;92.99;99646.59;1745998;82;21006;-52
2021/01/01 01:31:37;;;;;;;38.85;25.40;;;;;;;6.79;93.02;99636.23;1745930;82;21188;-51
2021/01/01 01:34:05;;;;;;;38.75;24.00;;;;;;;6.79;92.81;99632.14;1745497;82;21054;-52
2021/01/01 01:36:36;;;;;;;32.13;21.95;;;;;;;6.76;92.80;99623.97;1745970;82;21258;-51
2021/01/01 01:39:04;;;;;;;37.48;25.48;;;;;;;6.74;92.78;99623.40;1745635;82;21385;-51
2021/01/01 01:41:32;;;;;;;36.20;23.52;;;;;;;6.71;92.78;99625.30;1745968;82;21577;-52
2021/01/01 01:44:00;;;;;;;37.45;26.25;;;;;;;6.70;92.93;99629.11;1745777;81;21339;-52
2021/01/01 01:46:44;;;;;;;39.05;24.77;;;;;;;6.68;92.87;99634.03;1745616;82;21069;-52
2021/01/01 01:49:15;;;;;;;41.60;25.57;;;;;;;6.64;93.02;99621.45;1745758;82;21001;-52
2021/01/01 01:51:47;;;;;;;40.60;23.85;;;;;;;6.64;93.13;99622.81;1745725;82;21607;-52
2021/01/01 01:54:16;;;;;;;42.08;25.55;;;;;;;6.63;93.09;99627.17;1745830;82;21041;-52
2021/01/01 01:56:43;;;;;;;41.65;24.35;;;;;;;6.62;93.22;99626.37;1745622;82;21370;-52
2021/01/01 01:59:13;;;;;;;38.38;26.45;;;;;;;6.62;93.29;99620.09;1745686;82;21046;-52
2021/01/01 02:01:41;;;;;;;48.92;30.45;;;;;;;6.62;93.29;99614.64;1745867;82;21767;-52
2021/01/01 02:04:08;;;;;;;47.73;29.77;;;;;;;6.60;93.31;99615.44;1745707;82;21026;-52
2021/01/01 02:06:36;;;;;;;43.17;28.40;;;;;;;6.57;93.36;99606.70;1745840;81;21480;-51
2021/01/01 02:09:05;;;;;;;43.92;27.77;;;;;;;6.56;93.36;99609.16;1745369;82;21139;-51
2021/01/01 02:11:32;;;;;;;43.40;26.25;;;;;;;6.60;93.52;99608.61;1745765;82;20984;-51
2021/01/01 02:14:00;;;;;;;45.08;28.25;;;;;;;6.58;93.42;99598.78;1722689;82;20954;-52
2021/01/01 02:16:28;;;;;;;44.70;28.47;;;;;;;6.56;93.34;99594.70;1745545;82;21042;-52
2021/01/01 02:18:58;;;;;;;57.30;31.75;;;;;;;6.56;93.54;99594.14;1722668;82;21045;-52
2021/01/01 02:21:42;;;;;;;53.90;34.58;;;;;;;6.63;93.48;99588.97;1846446;76;21966;-51
2021/01/01 02:24:11;;;;;;;58.00;39.08;;;;;;;6.56;93.50;99594.14;1816715;79;20994;-52
2021/01/01 02:26:38;;;;;;;64.35;37.03;;;;;;;6.55;93.46;99594.42;1816634;79;21131;-52
2021/01/01 02:29:06;;;;;;;56.60;34.30;;;;;;;6.54;93.40;99592.77;1816663;78;20998;-52
2021/01/01 02:31:35;;;;;;;67.03;43.63;;;;;;;6.52;93.39;99593.03;1816365;79;20989;-52
2021/01/01 02:34:03;;;;;;;65.97;40.78;;;;;;;6.51;93.42;99595.48;1816597;79;21001;-51
2021/01/01 02:36:31;;;;;;;63.10;36.58;;;;;;;6.52;93.42;99590.86;1816582;79;20972;-52
2021/01/01 02:39:00;;;;;;;69.80;41.25;;;;;;;6.50;93.44;99587.56;1813695;79;21020;-52
2021/01/01 02:41:27;;;;;;;67.75;41.02;;;;;;;6.48;93.40;99578.28;1816450;79;21033;-52
2021/01/01 02:43:54;;;;;;;62.53;37.03;;;;;;;6.49;93.45;99579.13;1816513;78;21037;-52
2021/01/01 02:46:22;;;;;;;74.37;41.80;;;;;;;6.47;93.36;99581.28;1816541;79;21775;-52
2021/01/01 02:48:49;;;;;;;78.62;44.80;;;;;;;6.44;93.44;99573.63;1816602;79;20966;-52
2021/01/01 02:51:17;;;;;;;79.32;44.50;;;;;;;6.40;93.40;99568.72;1816649;79;21358;-52
2021/01/01 02:53:45;;;;;;;72.62;42.65;;;;;;;6.37;93.42;99563.80;1816433;79;21002;-52
2021/01/01 02:56:12;;;;;;;75.70;45.60;;;;;;;6.38;93.63;99561.88;1816508;79;20994;-52
2021/01/01 02:58:40;;;;;;;73.57;42.17;;;;;;;6.37;93.56;99557.50;1816553;79;21025;-52
2021/01/01 03:01:07;;;;;;;69.07;42.00;;;;;;;6.36;93.67;99555.89;1816536;78;21006;-52
2021/01/01 03:03:35;;;;;;;71.82;43.08;;;;;;;6.38;93.71;99550.97;1816664;79;21422;-52
2021/01/01 03:06:04;;;;;;;78.47;43.23;;;;;;;6.36;93.68;99550.44;1795620;78;20990;-52
2021/01/01 03:08:31;;;;;;;66.10;38.42;;;;;;;6.36;93.83;99540.33;1784591;80;21078;-52
2021/01/01 03:10:59;;;;;;;72.17;44.77;;;;;;;6.39;93.86;99538.98;1784278;80;21013;-52
2021/01/01 03:13:26;;;;;;;70.10;38.75;;;;;;;6.39;93.88;99532.16;1784473;80;21018;-52
2021/01/01 03:15:55;;;;;;;63.33;40.52;;;;;;;6.43;93.91;99530.55;1784327;80;21194;-52
2021/01/01 03:18:28;;;;;;;67.35;41.53;;;;;;;6.43;93.89;99526.98;1784375;79;21611;-52
2021/01/01 03:20:52;;;;;;;61.00;38.85;;;;;;;6.46;93.99;99523.19;1791732;79;21044;-52
2021/01/01 03:23:20;;;;;;;67.22;41.70;;;;;;;6.49;94.00;99520.47;1799027;79;21025;-52
2021/01/01 03:25:47;;;;;;;65.15;41.68;;;;;;;6.51;93.89;99525.91;1798783;79;21065;-52
2021/01/01 03:28:15;;;;;;;64.62;39.15;;;;;;;6.53;93.94;99523.75;1798975;79;21040;-52
2021/01/01 03:30:43;;;;;;;70.95;41.90;;;;;;;6.57;93.98;99516.67;1798888;79;21016;-52
2021/01/01 03:33:10;;;;;;;72.45;39.25;;;;;;;6.58;93.84;99512.83;1798252;79;21082;-52
2021/01/01 03:35:39;;;;;;;60.33;38.13;;;;;;;6.61;93.81;99501.12;1798318;79;21024;-53
2021/01/01 03:38:07;;;;;;;68.83;39.45;;;;;;;6.60;93.71;99511.20;1798456;79;20973;-54
2021/01/01 03:40:34;;;;;;;58.20;35.73;;;;;;;6.60;93.76;99507.66;1798331;79;21404;-52
2021/01/01 03:43:02;;;;;;;63.85;40.33;;;;;;;6.63;93.67;99501.66;1798296;79;21048;-52
2021/01/01 03:45:30;;;;;;;56.35;36.53;;;;;;;6.64;93.65;99501.94;1798265;79;21036;-52
2021/01/01 03:47:57;;;;;;;85.72;49.25;;;;;;;6.65;93.56;99499.50;1798266;79;20965;-52
2021/01/01 03:50:26;;;;;;;70.03;42.03;;;;;;;6.67;93.51;99491.84;1798326;79;21611;-53
2021/01/01 03:52:54;;;;;;;57.45;36.77;;;;;;;6.68;93.44;99492.13;1798148;79;21268;-53
2021/01/01 03:55:22;;;;;;;54.90;34.25;;;;;;;6.69;93.33;99491.86;1798451;79;21009;-53
2021/01/01 03:57:50;;;;;;;60.70;38.48;;;;;;;6.71;93.22;99495.67;1798482;79;20989;-52
2021/01/01 04:00:19;;;;;;;56.20;36.15;;;;;;;6.70;93.09;99501.69;1798412;79;21004;-53
2021/01/01 04:02:46;;;;;;;52.35;35.80;;;;;;;6.69;93.04;99500.05;1798321;79;21599;-52
2021/01/01 04:05:14;;;;;;;53.35;35.65;;;;;;;6.69;92.89;99498.67;1798324;78;21126;-51
2021/01/01 04:07:41;;;;;;;59.50;35.30;;;;;;;6.69;92.81;99503.33;1798374;79;21622;-52
2021/01/01 04:10:10;;;;;;;55.30;33.73;;;;;;;6.69;92.70;99501.96;1798125;79;21282;-52
2021/01/01 04:12:38;;;;;;;53.42;34.98;;;;;;;6.69;92.68;99496.50;1798390;79;21611;-52
2021/01/01 04:15:09;;;;;;;51.58;33.63;;;;;;;6.69;92.67;99489.69;1798247;79;21643;-53
2021/01/01 04:17:37;;;;;;;46.05;31.50;;;;;;;6.70;92.67;99478.50;1798502;79;22341;-53
2021/01/01 04:20:06;;;;;;;46.15;32.08;;;;;;;6.71;92.59;99467.83;1798246;79;20949;-53
2021/01/01 04:22:33;;;;;;;46.65;32.55;;;;;;;6.71;92.50;99465.66;1798428;79;21001;-53
2021/01/01 04:25:02;;;;;;;43.90;31.12;;;;;;;6.70;92.38;99462.65;1798270;79;21052;-53
2021/01/01 04:27:29;;;;;;;46.60;32.80;;;;;;;6.67;92.31;99458.58;1798240;79;20973;-52
2021/01/01 04:29:57;;;;;;;40.78;30.80;;;;;;;6.65;92.22;99466.20;1798317;79;21517;-52
2021/01/01 04:32:24;;;;;;;43.58;31.48;;;;;;;6.63;92.22;99464.30;1798306;79;20942;-53
2021/01/01 04:34:52;;;;;;;41.30;31.10;;;;;;;6.64;92.26;99465.10;1798426;79;21013;-52
2021/01/01 04:37:19;;;;;;;46.40;32.95;;;;;;;6.63;92.18;99460.20;1779419;80;21330;-53
2021/01/01 04:39:48;;;;;;;43.42;30.95;;;;;;;6.65;92.18;99454.47;1779349;80;21234;-53
2021/01/01 04:42:16;;;;;;;46.83;30.12;;;;;;;6.66;92.15;99461.02;1779382;80;21375;-52
2021/01/01 04:44:43;;;;;;;46.68;33.25;;;;;;;6.69;92.23;99450.11;1779257;80;21018;-53
2021/01/01 04:47:12;;;;;;;42.43;30.37;;;;;;;6.69;92.17;99457.75;1779200;80;21600;-53
2021/01/01 04:49:40;;;;;;;39.45;25.62;;;;;;;6.64;92.09;99465.91;1779448;80;20986;-53
2021/01/01 04:52:08;;;;;;;34.95;25.50;;;;;;;6.61;92.18;99467.02;1755353;80;20994;-53
2021/01/01 04:54:35;;;;;;;34.43;24.30;;;;;;;6.54;92.04;99456.36;1779466;80;23598;-53
2021/01/01 04:57:03;;;;;;;33.48;24.65;;;;;;;6.50;92.27;99441.09;1755218;80;20994;-53
2021/01/01 04:59:31;;;;;;;35.48;26.10;;;;;;;6.52;92.14;99443.55;1779327;80;21547;-53
2021/01/01 05:02:03;;;;;;;35.25;26.20;;;;;;;6.44;92.18;99446.80;1779291;80;21014;-52
2021/01/01 05:04:33;;;;;;;31.52;23.18;;;;;;;6.38;92.41;99430.41;1779396;79;21018;-53
2021/01/01 05:07:00;;;;;;;29.55;22.02;;;;;;;6.34;92.45;99428.50;1779446;80;22274;-52
2021/01/01 05:09:28;;;;;;;31.55;22.55;;;;;;;6.32;92.51;99425.23;1779266;80;21010;-52
2021/01/01 05:12:09;;;;;;;33.83;24.18;;;;;;;6.28;92.34;99417.31;1779180;80;21433;-52
2021/01/01 05:14:38;;;;;;;36.75;26.60;;;;;;;6.25;92.18;99430.94;1779258;80;21039;-52
2021/01/01 05:17:05;;;;;;;32.38;23.57;;;;;;;6.21;92.23;99447.00;1779530;80;21021;-52
2021/01/01 05:19:41;;;;;;;32.93;24.12;;;;;;;6.19;92.31;99441.01;1779454;80;21190;-52
2021/01/01 05:22:11;;;;;;;26.82;21.02;;;;;;;6.17;92.35;99435.02;1783042;80;21037;-52
2021/01/01 05:24:43;;;;;;;25.45;20.60;;;;;;;6.17;92.44;99433.66;1783761;80;20974;-52
2021/01/01 05:27:16;;;;;;;25.97;18.82;;;;;;;6.17;92.51;99428.73;1783669;80;21623;-52
2021/01/01 05:29:53;;;;;;;25.12;20.32;;;;;;;6.18;92.60;99431.73;1783900;80;20990;-52
2021/01/01 05:32:28;;;;;;;25.92;18.67;;;;;;;6.18;92.50;99442.09;1783732;80;21139;-52
2021/01/01 05:34:59;;;;;;;27.02;20.82;;;;;;;6.16;92.42;99438.82;1783561;80;20978;-52
2021/01/01 05:37:34;;;;;;;29.15;20.15;;;;;;;6.15;92.55;99439.09;1783608;80;21034;-51
2021/01/01 05:40:08;;;;;;;35.50;24.50;;;;;;;6.17;92.50;99431.45;1783184;80;21241;-52
2021/01/01 05:42:41;;;;;;;27.52;20.30;;;;;;;6.17;92.37;99443.72;1783696;80;21568;-52
2021/01/01 05:45:19;;;;;;;25.35;20.23;;;;;;;6.13;92.32;99440.73;1783695;80;21279;-52
2021/01/01 05:48:07;;;;;;;32.88;21.97;;;;;;;6.15;92.35;99438.54;1783353;80;21044;-52
2021/01/01 05:50:35;;;;;;;28.60;21.82;;;;;;;6.16;92.34;99432.53;1783895;80;21126;-52
2021/01/01 05:53:18;;;;;;;46.48;29.98;;;;;;;6.16;92.31;99435.26;1783733;80;20998;-52
2021/01/01 05:55:48;;;;;;;33.38;24.90;;;;;;;6.13;92.37;99427.09;1783785;80;20923;-52
2021/01/01 05:58:24;;;;;;;37.38;25.97;;;;;;;6.12;92.54;99428.17;1755520;80;21363;-52
2021/01/01 06:00:55;;;;;;;36.28;23.52;;;;;;;6.13;92.58;99422.17;1783848;80;20998;-52
2021/01/01 06:03:26;;;;;;;33.80;22.85;;;;;;;6.15;92.63;99424.91;1783187;80;21005;-52
2021/01/01 06:05:58;;;;;;;60.03;34.75;;;;;;;6.15;92.64;99420.81;1783929;79;21563;-53
2021/01/01 06:08:29;;;;;;;44.67;26.82;;;;;;;6.16;92.65;99424.35;1783771;80;21045;-52
2021/01/01 06:11:04;;;;;;;29.87;23.80;;;;;;;6.17;92.71;99424.64;1783703;80;21185;-53
2021/01/01 06:13:35;;;;;;;33.40;21.60;;;;;;;6.18;92.84;99417.55;1783877;80;21034;-52
2021/01/01 06:16:10;;;;;;;33.15;23.42;;;;;;;6.22;92.93;99418.66;1783469;80;20997;-53
2021/01/01 06:18:37;;;;;;;33.40;22.95;;;;;;;6.27;92.97;99414.30;1783836;80;21528;-53
2021/01/01 06:21:08;;;;;;;31.30;20.60;;;;;;;6.30;92.96;99419.21;1756449;80;21052;-53
2021/01/01 06:23:38;;;;;;;32.95;19.95;;;;;;;6.32;93.00;99416.50;1787299;80;21359;-52
2021/01/01 06:26:09;;;;;;;30.85;21.40;;;;;;;6.38;93.07;99414.59;1787218;80;21571;-52
2021/01/01 06:28:45;;;;;;;36.30;22.90;;;;;;;6.43;92.96;99417.88;1787477;80;20938;-53
2021/01/01 06:31:12;;;;;;;33.73;22.98;;;;;;;6.44;92.92;99409.41;1787504;80;21579;-51
2021/01/01 06:33:43;;;;;;;33.20;23.05;;;;;;;6.47;92.97;99415.69;1787295;80;21037;-52
2021/01/01 06:36:38;;;;;;;35.73;22.32;;;;;;;6.50;92.85;99408.35;1787473;80;22134;-52
2021/01/01 06:39:07;;;;;;;42.90;26.82;;;;;;;6.53;92.87;99400.14;1787259;80;21010;-52
2021/01/01 06:41:47;;;;;;;33.13;22.60;;;;;;;6.55;92.79;99405.61;1737999;80;21006;-51
2021/01/01 06:44:40;;;;;;;42.35;25.55;;;;;;;6.57;92.78;99416.25;1787329;80;21013;-52
2021/01/01 06:47:10;;;;;;;28.47;19.90;;;;;;;6.59;92.70;99411.36;1787353;80;20993;-52
2021/01/01 06:49:39;;;;;;;49.13;26.57;;;;;;;6.61;92.62;99409.16;1784217;80;21373;-52
2021/01/01 06:52:17;;;;;;;40.03;24.92;;;;;;;6.64;92.47;99411.34;1787232;80;20942;-52
2021/01/01 06:54:59;;;;;;;41.33;23.87;;;;;;;6.65;92.34;99410.81;1787019;80;21017;-52
2021/01/01 06:57:28;;;;;;;36.23;23.87;;;;;;;6.66;92.34;99411.06;1787215;80;21592;-52
2021/01/01 06:59:58;;;;;;;49.53;25.27;;;;;;;6.65;92.34;99413.55;1787469;80;20989;-52
2021/01/01 07:02:28;;;;;;;38.88;24.30;;;;;;;6.64;92.36;99417.36;1787142;80;21193;-53
2021/01/01 07:04:58;;;;;;;52.10;26.82;;;;;;;6.62;92.19;99408.63;1786598;78;21576;-53
2021/01/01 07:07:44;;;;;;;33.05;21.70;;;;;;;6.60;92.34;99415.70;1787568;80;21455;-53
2021/01/01 07:10:34;;;;;;;44.23;25.00;;;;;;;6.61;92.45;99415.98;1787461;80;21076;-53
2021/01/01 07:13:18;;;;;;;31.45;20.65;;;;;;;6.61;92.43;99423.36;1767195;80;21131;-53
2021/01/01 07:15:47;;;;;;;55.43;27.40;;;;;;;6.61;92.55;99417.34;1787460;80;21193;-52
2021/01/01 07:18:21;;;;;;;36.85;21.12;;;;;;;6.62;92.53;99418.19;1787402;80;21049;-52
2021/01/01 07:20:48;;;;;;;43.50;25.05;;;;;;;6.61;92.51;99432.91;1787350;80;21623;-52
2021/01/01 07:23:17;;;;;;;32.80;19.32;;;;;;;6.60;92.59;99420.34;1779412;80;21033;-52
2021/01/01 07:25:45;;;;;;;39.30;21.65;;;;;;;6.61;92.59;99433.72;1778751;80;20938;-52
2021/01/01 07:28:13;;;;;;;31.05;20.48;;;;;;;6.62;92.64;99423.64;1779540;80;22143;-52
2021/01/01 07:30:40;;;;;;;26.35;18.42;;;;;;;6.66;92.66;99428.80;1779247;80;20994;-52
2021/01/01 07:33:08;;;;;;;33.30;19.62;;;;;;;6.68;92.61;99432.09;1779290;80;21062;-52
2021/01/01 07:35:38;;;;;;;27.67;19.05;;;;;;;6.70;92.63;99436.72;1707081;80;21083;-52
2021/01/01 07:38:05;;;;;;;76.50;36.30;;;;;;;6.69;92.54;99426.92;1779310;80;21013;-52
2021/01/01 07:40:32;;;;;;;36.70;23.73;;;;;;;6.68;92.45;99432.09;1779011;80;21394;-52
2021/01/01 07:42:59;;;;;;;78.80;41.45;;;;;;;6.67;92.59;99433.17;1706790;80;21119;-52
2021/01/01 07:45:28;;;;;;;61.73;31.48;;;;;;;6.67;92.63;99431.81;1778779;80;21025;-52
2021/01/01 07:47:56;;;;;;;28.30;19.48;;;;;;;6.66;92.68;99431.53;1779440;80;21489;-52
2021/01/01 07:50:24;;;;;;;27.10;17.55;;;;;;;6.65;92.81;99435.38;1779526;80;21026;-52
2021/01/01 07:53:03;;;;;;;35.05;22.75;;;;;;;6.64;92.93;99440.55;1779535;80;22421;-52
2021/01/01 07:55:31;;;;;;;33.53;18.57;;;;;;;6.63;92.95;99438.38;1730573;82;21074;-52
2021/01/01 07:58:11;;;;;;;31.90;21.15;;;;;;;6.66;93.19;99441.08;1779305;80;21437;-53
2021/01/01 08:00:41;;;;;;;103.87;48.70;;;;;;;6.69;93.22;99444.10;1760889;81;21655;-52
2021/01/01 08:03:09;;;;;;;51.60;28.80;;;;;;;6.72;93.20;99450.94;1779392;80;21029;-52
2021/01/01 08:05:37;;;;;;;32.15;22.07;;;;;;;6.71;93.16;99462.93;1760914;81;21371;-52
2021/01/01 08:08:23;;;;;;;31.33;19.90;;;;;;;6.72;93.27;99453.66;1779485;80;21045;-52
2021/01/01 08:10:53;;;;;;;23.10;16.57;;;;;;;6.70;93.42;99445.75;1730580;82;21000;-52
2021/01/01 08:13:32;;;;;;;34.83;19.05;;;;;;;6.75;93.58;99460.75;1779407;80;21037;-52
2021/01/01 08:16:15;;;;;;;76.55;37.80;;;;;;;6.78;93.62;99456.66;1730722;82;21057;-52
2021/01/01 08:18:43;;;;;;;29.77;20.68;;;;;;;6.82;93.65;99455.02;1779567;80;21538;-52
2021/01/01 08:21:11;;;;;;;31.23;19.60;;;;;;;6.86;93.69;99460.75;1760831;81;21079;-52
2021/01/01 08:23:52;;;;;;;19.98;14.98;;;;;;;6.89;93.69;99456.94;1746162;81;21054;-52
2021/01/01 08:26:20;;;;;;;28.55;18.92;;;;;;;6.92;93.73;99459.12;1745831;82;21045;-52
2021/01/01 08:28:51;;;;;;;35.92;19.45;;;;;;;6.96;93.68;99455.84;1745794;82;21060;-53
2021/01/01 08:31:23;;;;;;;24.02;16.07;;;;;;;7.01;93.72;99458.58;1745860;82;21391;-53
2021/01/01 08:33:54;;;;;;;39.30;20.60;;;;;;;7.08;93.85;99459.13;1745711;82;21026;-52
2021/01/01 08:36:33;;;;;;;29.87;19.52;;;;;;;7.15;93.87;99457.48;1745784;82;21049;-53
2021/01/01 08:39:12;;;;;;;34.13;21.20;;;;;;;7.23;93.91;99464.58;1745726;82;21643;-53
2021/01/01 08:41:45;;;;;;;68.50;30.97;;;;;;;7.31;93.87;99466.48;1745907;82;21580;-52
2021/01/01 08:44:16;;;;;;;33.15;19.85;;;;;;;7.35;93.76;99468.37;1745824;82;21200;-53
2021/01/01 08:46:50;;;;;;;27.17;16.23;;;;;;;7.42;93.84;99476.30;1744555;82;21086;-53
2021/01/01 08:49:21;;;;;;;45.23;21.87;;;;;;;7.48;93.80;99482.02;1744025;82;21018;-53
2021/01/01 08:51:49;;;;;;;36.73;22.17;;;;;;;7.56;93.82;99484.20;1745673;82;21002;-53
2021/01/01 08:54:25;;;;;;;25.32;16.30;;;;;;;7.67;93.87;99481.44;1742432;82;21057;-53
2021/01/01 08:57:00;;;;;;;31.97;18.90;;;;;;;7.79;93.92;99486.06;1745446;82;21591;-53
2021/01/01 08:59:29;;;;;;;27.05;16.65;;;;;;;7.89;93.78;99490.69;1746064;82;21037;-53
2021/01/01 09:01:59;;;;;;;31.62;18.07;;;;;;;7.99;93.66;99488.44;1745789;82;21659;-53
2021/01/01 09:04:29;;;;;;;29.02;16.00;;;;;;;8.08;93.59;99495.78;1722496;82;21050;-53
2021/01/01 09:06:59;;;;;;;104.80;50.75;;;;;;;8.19;93.48;99497.94;1745896;82;21014;-53
2021/01/01 09:09:30;;;;;;;31.33;19.20;;;;;;;8.28;93.14;99495.44;1745830;82;21373;-53
2021/01/01 09:12:20;;;;;;;107.83;47.67;;;;;;;8.37;93.01;99506.61;1745632;82;21068;-53
2021/01/01 09:14:51;;;;;;;31.48;17.70;;;;;;;8.45;92.78;99504.69;1742013;82;21624;-53
2021/01/01 09:17:22;;;;;;;34.50;18.05;;;;;;;8.57;92.65;99500.24;1745655;81;21022;-52
2021/01/01 09:20:05;;;;;;;22.58;13.83;;;;;;;8.65;92.19;99504.56;1745875;82;21309;-52
2021/01/01 09:22:35;;;;;;;35.20;18.07;;;;;;;8.71;91.92;99504.55;1749806;81;21294;-52
2021/01/01 09:25:25;;;;;;;27.42;15.48;;;;;;;8.78;91.44;99513.26;1756123;81;21025;-51
2021/01/01 09:27:53;;;;;;;20.95;11.43;;;;;;;8.85;91.16;99513.76;1787297;80;21013;-52
2021/01/01 09:30:24;;;;;;;17.90;10.00;;;;;;;8.91;90.56;99508.50;1787405;80;21635;-52
2021/01/01 09:32:57;;;;;;;14.20;9.65;;;;;;;8.93;89.92;99517.27;1787461;80;21048;-52
2021/01/01 09:35:26;;;;;;;45.40;19.40;;;;;;;8.95;89.66;99523.27;1787412;80;21406;-52
2021/01/01 09:38:01;;;;;;;14.10;9.35;;;;;;;8.97;89.53;99532.03;1787455;80;21592;-52
2021/01/01 09:40:32;;;;;;;39.15;17.52;;;;;;;8.96;89.18;99529.02;1787430;80;20966;-52
2021/01/01 09:43:02;;;;;;;23.00;11.60;;;;;;;9.00;88.92;99522.41;1787332;80;21089;-52
2021/01/01 09:45:29;;;;;;;15.25;9.48;;;;;;;9.02;88.77;99528.97;1787393;80;21620;-52
2021/01/01 09:47:57;;;;;;;26.33;11.97;;;;;;;9.04;88.61;99525.41;1787393;80;21321;-52
2021/01/01 09:50:24;;;;;;;12.37;7.78;;;;;;;9.05;88.54;99523.75;1787242;80;21001;-52
2021/01/01 09:52:52;;;;;;;27.30;13.55;;;;;;;9.08;88.18;99518.26;1787265;80;21065;-52
2021/01/01 09:55:19;;;;;;;29.57;13.32;;;;;;;9.10;88.15;99516.03;1787327;80;21353;-52
2021/01/01 09:57:47;;;;;;;16.45;9.78;;;;;;;9.12;88.09;99522.88;1787339;80;20998;-52
2021/01/01 10:00:17;;;;;;;44.38;21.95;;;;;;;9.13;87.96;99522.31;1787312;80;21320;-52
2021/01/01 10:02:50;;;;;;;13.43;9.00;;;;;;;9.15;87.97;99519.55;1787355;80;21640;-52
2021/01/01 10:05:17;;;;;;;22.07;11.68;;;;;;;9.22;87.69;99523.91;1787249;78;20998;-54
2021/01/01 10:07:44;;;;;;;58.23;27.25;;;;;;;9.25;87.55;99520.03;1787267;80;21052;-52
2021/01/01 10:10:13;;;;;;;30.40;14.53;;;;;;;9.25;87.25;99528.25;1787235;80;21183;-52
2021/01/01 10:12:40;;;;;;;24.00;12.23;;;;;;;9.25;87.17;99519.23;1787229;80;21399;-52
2021/01/01 10:15:10;;;;;;;30.92;15.15;;;;;;;9.24;87.14;99533.45;1787220;80;21045;-53
2021/01/01 10:17:38;;;;;;;150.27;54.23;;;;;;;9.25;87.08;99535.10;1787441;80;21013;-53
2021/01/01 10:20:07;;;;;;;59.27;24.18;;;;;;;9.24;86.92;99532.65;1787219;80;21033;-52
2021/01/01 10:22:35;;;;;;;39.42;18.87;;;;;;;9.22;86.70;99530.20;1785153;80;21060;-53
2021/01/01 10:25:05;;;;;;;51.95;22.70;;;;;;;9.20;86.63;99531.58;1779247;80;21432;-53
2021/01/01 10:27:32;;;;;;;17.17;8.75;;;;;;;9.22;86.57;99534.31;1779140;80;22103;-52
2021/01/01 10:29:59;;;;;;;97.82;38.35;;;;;;;9.27;86.18;99540.30;1760559;81;21001;-53
2021/01/01 10:32:27;;;;;;;22.77;11.43;;;;;;;9.25;85.97;99529.63;1779300;80;20970;-52
2021/01/01 10:34:55;;;;;;;16.65;8.75;;;;;;;9.25;86.13;99536.47;1760738;81;21490;-52
2021/01/01 10:37:22;;;;;;;15.23;7.95;;;;;;;9.28;86.17;99538.63;1779463;80;21245;-52
2021/01/01 10:39:49;;;;;;;16.37;8.73;;;;;;;9.30;85.94;99541.92;1760455;81;21035;-53
2021/01/01 10:42:17;;;;;;;18.62;10.15;;;;;;;9.31;85.96;99555.87;1779372;80;21022;-53
2021/01/01 10:44:44;;;;;;;69.77;28.98;;;;;;;9.32;85.69;99556.14;1760664;81;21578;-53
2021/01/01 10:47:12;;;;;;;14.58;8.55;;;;;;;9.31;85.65;99553.13;1779516;80;21002;-53
2021/01/01 10:49:39;;;;;;;50.05;21.35;;;;;;;9.29;85.71;99556.72;1760998;81;21289;-52
2021/01/01 10:52:07;;;;;;;27.13;13.53;;;;;;;9.28;85.77;99559.19;1779303;80;20950;-53
2021/01/01 10:54:34;;;;;;;49.88;23.47;;;;;;;9.29;85.84;99568.24;1761019;81;21032;-53
2021/01/01 10:57:02;;;;;;;65.95;27.32;;;;;;;9.29;85.56;99566.31;1779222;80;20986;-53
2021/01/01 10:59:30;;;;;;;67.53;28.17;;;;;;;9.26;85.71;99560.03;1779552;80;21118;-52
2021/01/01 11:01:57;;;;;;;9.63;6.62;;;;;;;9.25;85.76;99565.80;1760894;81;21028;-53
2021/01/01 11:04:27;;;;;;;70.15;29.80;;;;;;;9.23;85.79;99560.61;1779353;79;21049;-53
2021/01/01 11:06:54;;;;;;;25.60;13.72;;;;;;;9.23;85.94;99566.09;1760961;81;21056;-53
2021/01/01 11:09:23;;;;;;;102.25;46.02;;;;;;;9.23;85.90;99566.09;1779171;80;21022;-53
2021/01/01 11:11:56;;;;;;;66.67;27.75;;;;;;;9.22;86.02;99577.34;1729794;82;21000;-52
2021/01/01 12:26:28;;;;;;;12.33;9.73;;;;;;;9.20;84.72;99628.28;1783886;80;21006;-52
2021/01/01 12:28:58;;;;;;;15.08;9.50;;;;;;;9.18;84.30;99630.50;1782973;80;20958;-52
2021/01/01 12:31:26;;;;;;;15.05;9.35;;;;;;;9.14;84.09;99639.83;1714807;80;21005;-52
2021/01/01 12:33:53;;;;;;;14.05;10.30;;;;;;;9.11;83.71;99641.77;1755379;80;21101;-52
2021/01/01 12:36:21;;;;;;;13.43;9.78;;;;;;;9.08;83.67;99643.70;1783803;80;21623;-52
2021/01/01 12:38:48;;;;;;;11.33;8.40;;;;;;;9.08;83.46;99640.97;1783681;80;21067;-52
2021/01/01 12:41:16;;;;;;;12.05;8.60;;;;;;;9.05;82.87;99643.47;1783710;80;20973;-52
2021/01/01 12:43:43;;;;;;;15.13;10.53;;;;;;;8.97;82.48;99646.23;1783880;80;21037;-52
2021/01/01 12:46:11;;;;;;;13.90;10.32;;;;;;;8.90;82.30;99649.30;1783759;80;21071;-52
2021/01/01 12:48:39;;;;;;;14.63;11.08;;;;;;;8.87;82.11;99658.05;1783917;80;21183;-52
2021/01/01 12:51:06;;;;;;;16.07;11.90;;;;;;;8.86;81.98;99650.95;1783809;80;21013;-52